sensor_id;sensor_type;location;lat;lon;timestamp;temperature;humidity
68842;SHT35;55849;48.482;2.332;2022-07-22T00:00:09;24.83;64.08
68842;SHT35;55849;48.482;2.332;2022-07-22T00:03:11;24.82;64.72
68842;SHT35;55849;48.482;2.332;2022-07-22T00:06:13;24.83;64.45
68842;SHT35;55849;48.482;2.332;2022-07-22T00:09:15;24.80;64.08
68842;SHT35;55849;48.482;2.332;2022-07-22T00:12:16;24.76;64.46
68842;SHT35;55849;48.482;2.332;2022-07-22T00:15:20;24.76;64.28
68842;SHT35;55849;48.482;2.332;2022-07-22T00:18:21;24.72;64.72
68842;SHT35;55849;48.482;2.332;2022-07-22T00:21:23;24.69;64.36
68842;SHT35;55849;48.482;2.332;2022-07-22T00:24:24;24.66;64.18
68842;SHT35;55849;48.482;2.332;2022-07-22T00:27:26;24.66;64.79
68842;SHT35;55849;48.482;2.332;2022-07-22T00:30:29;24.61;64.62
68842;SHT35;55849;48.482;2.332;2022-07-22T00:33:32;24.58;65.34
68842;SHT35;55849;48.482;2.332;2022-07-22T00:36:33;24.55;65.21
68842;SHT35;55849;48.482;2.332;2022-07-22T00:39:35;24.58;65.17
68842;SHT35;55849;48.482;2.332;2022-07-22T00:42:37;24.55;65.01
68842;SHT35;55849;48.482;2.332;2022-07-22T00:45:40;24.49;65.24
68842;SHT35;55849;48.482;2.332;2022-07-22T00:48:42;24.51;65.21
68842;SHT35;55849;48.482;2.332;2022-07-22T00:51:45;24.47;65.05
68842;SHT35;55849;48.482;2.332;2022-07-22T00:54:47;24.44;65.28
68842;SHT35;55849;48.482;2.332;2022-07-22T00:57:49;24.40;65.02
68842;SHT35;55849;48.482;2.332;2022-07-22T01:00:52;24.38;64.87
68842;SHT35;55849;48.482;2.332;2022-07-22T01:03:54;24.34;65.16
68842;SHT35;55849;48.482;2.332;2022-07-22T01:06:56;24.30;64.97
68842;SHT35;55849;48.482;2.332;2022-07-22T01:09:57;24.25;65.07
68842;SHT35;55849;48.482;2.332;2022-07-22T01:12:59;24.21;66.03
68842;SHT35;55849;48.482;2.332;2022-07-22T01:16:03;24.18;65.69
68842;SHT35;55849;48.482;2.332;2022-07-22T01:19:05;24.14;65.40
68842;SHT35;55849;48.482;2.332;2022-07-22T01:22:08;24.12;65.96
68842;SHT35;55849;48.482;2.332;2022-07-22T01:25:10;24.09;65.20
68842;SHT35;55849;48.482;2.332;2022-07-22T01:28:11;24.05;65.95
68842;SHT35;55849;48.482;2.332;2022-07-22T01:31:13;24.02;66.33
68842;SHT35;55849;48.482;2.332;2022-07-22T01:34:14;23.99;67.11
68842;SHT35;55849;48.482;2.332;2022-07-22T01:37:17;23.95;66.93
68842;SHT35;55849;48.482;2.332;2022-07-22T01:40:19;23.93;67.93
68842;SHT35;55849;48.482;2.332;2022-07-22T01:43:21;23.90;68.32
68842;SHT35;55849;48.482;2.332;2022-07-22T01:46:22;23.86;68.09
68842;SHT35;55849;48.482;2.332;2022-07-22T01:49:25;23.86;68.07
68842;SHT35;55849;48.482;2.332;2022-07-22T01:52:28;23.81;68.02
68842;SHT35;55849;48.482;2.332;2022-07-22T01:55:30;23.76;68.57
68842;SHT35;55849;48.482;2.332;2022-07-22T01:58:32;23.73;68.53
68842;SHT35;55849;48.482;2.332;2022-07-22T02:01:34;23.68;68.61
68842;SHT35;55849;48.482;2.332;2022-07-22T02:04:35;23.65;68.99
68842;SHT35;55849;48.482;2.332;2022-07-22T02:07:38;23.65;69.21
68842;SHT35;55849;48.482;2.332;2022-07-22T02:10:40;23.61;68.49
68842;SHT35;55849;48.482;2.332;2022-07-22T02:13:42;23.58;69.27
68842;SHT35;55849;48.482;2.332;2022-07-22T02:16:44;23.58;68.86
68842;SHT35;55849;48.482;2.332;2022-07-22T02:19:45;23.53;69.00
68842;SHT35;55849;48.482;2.332;2022-07-22T02:22:48;23.53;69.46
68842;SHT35;55849;48.482;2.332;2022-07-22T02:25:50;23.48;68.70
68842;SHT35;55849;48.482;2.332;2022-07-22T02:28:52;23.46;68.65
68842;SHT35;55849;48.482;2.332;2022-07-22T02:31:54;23.44;69.21
68842;SHT35;55849;48.482;2.332;2022-07-22T02:34:55;23.40;69.11
68842;SHT35;55849;48.482;2.332;2022-07-22T02:37:58;23.38;68.65
68842;SHT35;55849;48.482;2.332;2022-07-22T02:41:00;23.38;68.42
68842;SHT35;55849;48.482;2.332;2022-07-22T02:44:02;23.34;68.10
68842;SHT35;55849;48.482;2.332;2022-07-22T02:47:04;23.33;68.13
68842;SHT35;55849;48.482;2.332;2022-07-22T02:50:06;23.30;68.05
68842;SHT35;55849;48.482;2.332;2022-07-22T02:53:09;23.28;68.36
68842;SHT35;55849;48.482;2.332;2022-07-22T02:56:11;23.26;68.51
68842;SHT35;55849;48.482;2.332;2022-07-22T02:59:12;23.24;68.38
68842;SHT35;55849;48.482;2.332;2022-07-22T03:02:14;23.23;68.26
68842;SHT35;55849;48.482;2.332;2022-07-22T03:05:15;23.17;67.75
68842;SHT35;55849;48.482;2.332;2022-07-22T03:08:18;23.17;68.15
68842;SHT35;55849;48.482;2.332;2022-07-22T03:11:20;23.16;68.03
68842;SHT35;55849;48.482;2.332;2022-07-22T03:14:22;23.16;68.25
68842;SHT35;55849;48.482;2.332;2022-07-22T03:17:23;23.13;68.17
68842;SHT35;55849;48.482;2.332;2022-07-22T03:20:25;23.12;68.04
68842;SHT35;55849;48.482;2.332;2022-07-22T03:23:28;23.10;67.88
68842;SHT35;55849;48.482;2.332;2022-07-22T03:26:30;23.07;67.86
68842;SHT35;55849;48.482;2.332;2022-07-22T03:29:31;23.03;68.04
68842;SHT35;55849;48.482;2.332;2022-07-22T03:32:33;23.05;68.24
68842;SHT35;55849;48.482;2.332;2022-07-22T03:35:35;23.03;68.29
68842;SHT35;55849;48.482;2.332;2022-07-22T03:38:38;23.00;68.19
68842;SHT35;55849;48.482;2.332;2022-07-22T03:41:39;22.98;68.04
68842;SHT35;55849;48.482;2.332;2022-07-22T03:44:41;23.00;67.71
68842;SHT35;55849;48.482;2.332;2022-07-22T03:47:42;22.98;67.87
68842;SHT35;55849;48.482;2.332;2022-07-22T03:50:44;22.96;68.30
68842;SHT35;55849;48.482;2.332;2022-07-22T03:53:47;22.94;68.12
68842;SHT35;55849;48.482;2.332;2022-07-22T03:56:48;22.94;68.15
68842;SHT35;55849;48.482;2.332;2022-07-22T03:59:50;22.89;68.10
68842;SHT35;55849;48.482;2.332;2022-07-22T04:02:52;22.88;68.55
68842;SHT35;55849;48.482;2.332;2022-07-22T04:05:53;22.85;68.19
68842;SHT35;55849;48.482;2.332;2022-07-22T04:08:56;22.86;68.07
68842;SHT35;55849;48.482;2.332;2022-07-22T04:11:58;22.85;68.34
68842;SHT35;55849;48.482;2.332;2022-07-22T04:15:00;22.84;68.21
68842;SHT35;55849;48.482;2.332;2022-07-22T04:18:01;22.84;68.39
68842;SHT35;55849;48.482;2.332;2022-07-22T04:21:03;22.79;68.13
68842;SHT35;55849;48.482;2.332;2022-07-22T04:24:06;22.79;68.20
68842;SHT35;55849;48.482;2.332;2022-07-22T04:27:08;22.76;68.32
68842;SHT35;55849;48.482;2.332;2022-07-22T04:30:10;22.75;68.32
68842;SHT35;55849;48.482;2.332;2022-07-22T04:33:12;22.72;68.45
68842;SHT35;55849;48.482;2.332;2022-07-22T04:36:14;22.71;68.20
68842;SHT35;55849;48.482;2.332;2022-07-22T04:39:17;22.69;68.42
68842;SHT35;55849;48.482;2.332;2022-07-22T04:42:19;22.68;68.33
68842;SHT35;55849;48.482;2.332;2022-07-22T04:45:21;22.68;68.64
68842;SHT35;55849;48.482;2.332;2022-07-22T04:48:22;22.68;68.42
68842;SHT35;55849;48.482;2.332;2022-07-22T04:51:24;22.68;68.57
68842;SHT35;55849;48.482;2.332;2022-07-22T04:54:27;22.65;68.78
68842;SHT35;55849;48.482;2.332;2022-07-22T04:57:28;22.67;68.68
68842;SHT35;55849;48.482;2.332;2022-07-22T05:00:30;22.65;68.51
68842;SHT35;55849;48.482;2.332;2022-07-22T05:03:32;22.67;68.61
68842;SHT35;55849;48.482;2.332;2022-07-22T05:06:34;22.65;68.61
68842;SHT35;55849;48.482;2.332;2022-07-22T05:09:37;22.67;68.89
68842;SHT35;55849;48.482;2.332;2022-07-22T05:12:39;22.65;68.63
68842;SHT35;55849;48.482;2.332;2022-07-22T05:15:41;22.68;68.69
68842;SHT35;55849;48.482;2.332;2022-07-22T05:18:42;22.67;68.84
68842;SHT35;55849;48.482;2.332;2022-07-22T05:21:44;22.69;68.79
68842;SHT35;55849;48.482;2.332;2022-07-22T05:24:47;22.71;68.53
68842;SHT35;55849;48.482;2.332;2022-07-22T05:27:49;22.69;68.81
68842;SHT35;55849;48.482;2.332;2022-07-22T05:30:51;22.69;68.73
68842;SHT35;55849;48.482;2.332;2022-07-22T05:33:53;22.71;68.91
68842;SHT35;55849;48.482;2.332;2022-07-22T05:36:54;22.75;68.91
68842;SHT35;55849;48.482;2.332;2022-07-22T05:39:57;22.73;68.98
68842;SHT35;55849;48.482;2.332;2022-07-22T05:42:59;22.76;69.27
68842;SHT35;55849;48.482;2.332;2022-07-22T05:46:01;22.78;68.83
68842;SHT35;55849;48.482;2.332;2022-07-22T05:49:02;22.79;68.65
68842;SHT35;55849;48.482;2.332;2022-07-22T05:52:04;22.84;68.81
68842;SHT35;55849;48.482;2.332;2022-07-22T05:55:08;22.84;68.80
68842;SHT35;55849;48.482;2.332;2022-07-22T05:58:10;22.84;68.84
68842;SHT35;55849;48.482;2.332;2022-07-22T06:01:12;22.88;69.02
68842;SHT35;55849;48.482;2.332;2022-07-22T06:04:14;22.89;68.95
68842;SHT35;55849;48.482;2.332;2022-07-22T06:07:16;22.91;69.05
68842;SHT35;55849;48.482;2.332;2022-07-22T06:10:19;22.94;68.73
68842;SHT35;55849;48.482;2.332;2022-07-22T06:13:21;22.94;68.83
68842;SHT35;55849;48.482;2.332;2022-07-22T06:16:23;22.95;68.90
68842;SHT35;55849;48.482;2.332;2022-07-22T06:19:24;22.99;68.87
68842;SHT35;55849;48.482;2.332;2022-07-22T06:22:26;23.06;69.12
68842;SHT35;55849;48.482;2.332;2022-07-22T06:25:29;23.10;69.29
68842;SHT35;55849;48.482;2.332;2022-07-22T06:28:31;23.16;69.18
68842;SHT35;55849;48.482;2.332;2022-07-22T06:31:32;23.20;69.14
68842;SHT35;55849;48.482;2.332;2022-07-22T06:34:34;23.26;68.82
68842;SHT35;55849;48.482;2.332;2022-07-22T06:37:36;23.28;68.90
68842;SHT35;55849;48.482;2.332;2022-07-22T06:40:39;23.34;68.79
68842;SHT35;55849;48.482;2.332;2022-07-22T06:43:40;23.34;68.81
68842;SHT35;55849;48.482;2.332;2022-07-22T06:46:42;23.38;68.71
68842;SHT35;55849;48.482;2.332;2022-07-22T06:49:43;23.43;68.85
68842;SHT35;55849;48.482;2.332;2022-07-22T06:52:45;23.44;68.83
68842;SHT35;55849;48.482;2.332;2022-07-22T06:55:48;23.51;68.83
68842;SHT35;55849;48.482;2.332;2022-07-22T06:58:50;23.51;68.79
68842;SHT35;55849;48.482;2.332;2022-07-22T07:01:51;23.57;68.67
68842;SHT35;55849;48.482;2.332;2022-07-22T07:04:53;23.61;68.84
68842;SHT35;55849;48.482;2.332;2022-07-22T07:07:55;23.68;68.78
68842;SHT35;55849;48.482;2.332;2022-07-22T07:10:58;23.72;68.66
68842;SHT35;55849;48.482;2.332;2022-07-22T07:14:00;23.78;68.91
68842;SHT35;55849;48.482;2.332;2022-07-22T07:17:02;23.83;68.63
68842;SHT35;55849;48.482;2.332;2022-07-22T07:20:05;23.86;68.79
68842;SHT35;55849;48.482;2.332;2022-07-22T07:23:06;23.89;68.36
68842;SHT35;55849;48.482;2.332;2022-07-22T07:26:10;23.95;68.13
68842;SHT35;55849;48.482;2.332;2022-07-22T07:29:11;23.96;68.62
68842;SHT35;55849;48.482;2.332;2022-07-22T07:32:13;23.99;67.92
68842;SHT35;55849;48.482;2.332;2022-07-22T07:35:14;24.00;67.81
68842;SHT35;55849;48.482;2.332;2022-07-22T07:38:16;24.05;67.65
68842;SHT35;55849;48.482;2.332;2022-07-22T07:41:19;24.12;68.13
68842;SHT35;55849;48.482;2.332;2022-07-22T07:44:21;24.14;68.28
68842;SHT35;55849;48.482;2.332;2022-07-22T07:47:22;24.20;68.01
68842;SHT35;55849;48.482;2.332;2022-07-22T07:50:25;24.27;68.02
68842;SHT35;55849;48.482;2.332;2022-07-22T07:53:26;24.33;67.93
68842;SHT35;55849;48.482;2.332;2022-07-22T07:56:29;24.38;67.79
68842;SHT35;55849;48.482;2.332;2022-07-22T07:59:31;24.42;68.15
68842;SHT35;55849;48.482;2.332;2022-07-22T08:02:33;24.49;68.39
68842;SHT35;55849;48.482;2.332;2022-07-22T08:05:35;24.54;68.41
68842;SHT35;55849;48.482;2.332;2022-07-22T08:08:37;24.59;67.86
68842;SHT35;55849;48.482;2.332;2022-07-22T08:11:40;24.64;68.00
68842;SHT35;55849;48.482;2.332;2022-07-22T08:14:41;24.71;67.95
68842;SHT35;55849;48.482;2.332;2022-07-22T08:17:43;24.77;67.80
68842;SHT35;55849;48.482;2.332;2022-07-22T08:20:45;24.82;67.43
68842;SHT35;55849;48.482;2.332;2022-07-22T08:23:46;24.85;67.69
68842;SHT35;55849;48.482;2.332;2022-07-22T08:26:49;24.90;67.65
68842;SHT35;55849;48.482;2.332;2022-07-22T08:29:51;24.99;67.18
68842;SHT35;55849;48.482;2.332;2022-07-22T08:32:53;25.04;67.11
68842;SHT35;55849;48.482;2.332;2022-07-22T08:35:54;25.10;67.07
68842;SHT35;55849;48.482;2.332;2022-07-22T08:38:56;25.16;67.78
68842;SHT35;55849;48.482;2.332;2022-07-22T08:41:59;25.20;67.72
68842;SHT35;55849;48.482;2.332;2022-07-22T08:45:01;25.27;67.82
68842;SHT35;55849;48.482;2.332;2022-07-22T08:48:04;25.33;67.12
68842;SHT35;55849;48.482;2.332;2022-07-22T08:51:06;25.37;67.70
68842;SHT35;55849;48.482;2.332;2022-07-22T08:54:08;25.44;67.26
68842;SHT35;55849;48.482;2.332;2022-07-22T08:57:11;25.51;66.45
68842;SHT35;55849;48.482;2.332;2022-07-22T09:00:15;25.61;67.28
68842;SHT35;55849;48.482;2.332;2022-07-22T09:03:19;25.70;66.24
68842;SHT35;55849;48.482;2.332;2022-07-22T09:06:25;25.76;66.42
68842;SHT35;55849;48.482;2.332;2022-07-22T09:09:31;25.83;66.26
68842;SHT35;55849;48.482;2.332;2022-07-22T09:12:35;25.92;65.48
68842;SHT35;55849;48.482;2.332;2022-07-22T09:15:52;26.00;66.26
68842;SHT35;55849;48.482;2.332;2022-07-22T09:18:54;26.03;65.41
68842;SHT35;55849;48.482;2.332;2022-07-22T09:21:56;26.10;64.39
68842;SHT35;55849;48.482;2.332;2022-07-22T09:24:57;26.16;64.36
68842;SHT35;55849;48.482;2.332;2022-07-22T09:28:13;26.20;64.71
68842;SHT35;55849;48.482;2.332;2022-07-22T09:31:23;26.27;65.63
68842;SHT35;55849;48.482;2.332;2022-07-22T09:34:27;26.34;65.44
68842;SHT35;55849;48.482;2.332;2022-07-22T09:37:29;26.42;65.76
68842;SHT35;55849;48.482;2.332;2022-07-22T09:40:32;26.48;65.33
68842;SHT35;55849;48.482;2.332;2022-07-22T09:43:36;26.52;65.94
68842;SHT35;55849;48.482;2.332;2022-07-22T09:46:37;26.55;65.71
68842;SHT35;55849;48.482;2.332;2022-07-22T09:49:39;26.59;65.14
68842;SHT35;55849;48.482;2.332;2022-07-22T09:52:41;26.60;65.50
68842;SHT35;55849;48.482;2.332;2022-07-22T09:55:43;26.63;65.08
68842;SHT35;55849;48.482;2.332;2022-07-22T09:58:46;26.60;64.73
68842;SHT35;55849;48.482;2.332;2022-07-22T10:01:51;26.59;64.82
68842;SHT35;55849;48.482;2.332;2022-07-22T10:04:55;26.55;65.14
68842;SHT35;55849;48.482;2.332;2022-07-22T10:07:57;26.52;65.62
68842;SHT35;55849;48.482;2.332;2022-07-22T10:11:02;26.49;65.68
68842;SHT35;55849;48.482;2.332;2022-07-22T10:14:07;26.48;65.66
68842;SHT35;55849;48.482;2.332;2022-07-22T10:17:09;26.45;65.93
68842;SHT35;55849;48.482;2.332;2022-07-22T10:20:11;26.45;66.10
68842;SHT35;55849;48.482;2.332;2022-07-22T10:23:13;26.51;66.41
68842;SHT35;55849;48.482;2.332;2022-07-22T10:26:15;26.57;66.35
68842;SHT35;55849;48.482;2.332;2022-07-22T10:29:32;26.64;65.66
68842;SHT35;55849;48.482;2.332;2022-07-22T10:32:39;26.72;65.92
68842;SHT35;55849;48.482;2.332;2022-07-22T10:35:53;26.80;65.91
68842;SHT35;55849;48.482;2.332;2022-07-22T10:39:03;26.87;65.79
68842;SHT35;55849;48.482;2.332;2022-07-22T10:42:05;26.94;65.74
68842;SHT35;55849;48.482;2.332;2022-07-22T10:45:09;27.03;65.30
68842;SHT35;55849;48.482;2.332;2022-07-22T10:48:13;27.05;65.01
68842;SHT35;55849;48.482;2.332;2022-07-22T10:51:16;27.08;64.97
68842;SHT35;55849;48.482;2.332;2022-07-22T10:54:18;27.11;64.60
68842;SHT35;55849;48.482;2.332;2022-07-22T10:57:29;27.11;64.77
68842;SHT35;55849;48.482;2.332;2022-07-22T11:00:32;27.14;64.76
68842;SHT35;55849;48.482;2.332;2022-07-22T11:03:36;27.10;64.59
68842;SHT35;55849;48.482;2.332;2022-07-22T11:06:38;27.11;64.46
68842;SHT35;55849;48.482;2.332;2022-07-22T11:09:40;27.08;64.65
68842;SHT35;55849;48.482;2.332;2022-07-22T11:12:42;27.05;64.65
68842;SHT35;55849;48.482;2.332;2022-07-22T11:15:45;27.01;64.86
68842;SHT35;55849;48.482;2.332;2022-07-22T11:18:48;27.03;65.15
68842;SHT35;55849;48.482;2.332;2022-07-22T11:21:52;27.07;64.06
68842;SHT35;55849;48.482;2.332;2022-07-22T11:24:54;27.08;64.39
68842;SHT35;55849;48.482;2.332;2022-07-22T11:27:56;27.14;64.12
68842;SHT35;55849;48.482;2.332;2022-07-22T11:31:06;27.21;64.52
68842;SHT35;55849;48.482;2.332;2022-07-22T11:34:09;27.24;64.53
68842;SHT35;55849;48.482;2.332;2022-07-22T11:37:11;27.25;64.87
68842;SHT35;55849;48.482;2.332;2022-07-22T11:40:13;27.27;64.20
68842;SHT35;55849;48.482;2.332;2022-07-22T11:43:15;27.25;63.07
68842;SHT35;55849;48.482;2.332;2022-07-22T11:46:18;27.20;64.49
68842;SHT35;55849;48.482;2.332;2022-07-22T11:49:21;27.16;62.66
68842;SHT35;55849;48.482;2.332;2022-07-22T11:52:23;27.14;63.25
68842;SHT35;55849;48.482;2.332;2022-07-22T11:55:24;27.08;65.07
68842;SHT35;55849;48.482;2.332;2022-07-22T11:58:36;27.08;65.66
68842;SHT35;55849;48.482;2.332;2022-07-22T12:01:40;27.04;65.79
68842;SHT35;55849;48.482;2.332;2022-07-22T12:04:42;27.04;64.32
68842;SHT35;55849;48.482;2.332;2022-07-22T12:07:47;27.01;65.81
68842;SHT35;55849;48.482;2.332;2022-07-22T12:10:48;27.05;66.20
68842;SHT35;55849;48.482;2.332;2022-07-22T12:13:51;27.05;66.54
68842;SHT35;55849;48.482;2.332;2022-07-22T12:16:56;27.04;66.70
68842;SHT35;55849;48.482;2.332;2022-07-22T12:20:09;27.05;66.69
68842;SHT35;55849;48.482;2.332;2022-07-22T12:23:12;27.07;66.68
68842;SHT35;55849;48.482;2.332;2022-07-22T12:26:14;27.07;67.20
68842;SHT35;55849;48.482;2.332;2022-07-22T12:29:26;27.07;67.13
68842;SHT35;55849;48.482;2.332;2022-07-22T12:32:29;27.08;67.41
68842;SHT35;55849;48.482;2.332;2022-07-22T12:35:31;27.07;67.44
68842;SHT35;55849;48.482;2.332;2022-07-22T12:38:33;27.08;67.80
68842;SHT35;55849;48.482;2.332;2022-07-22T12:41:45;27.08;67.97
68842;SHT35;55849;48.482;2.332;2022-07-22T12:44:51;27.12;68.15
68842;SHT35;55849;48.482;2.332;2022-07-22T12:47:56;27.16;68.21
68842;SHT35;55849;48.482;2.332;2022-07-22T12:50:59;27.20;68.15
68842;SHT35;55849;48.482;2.332;2022-07-22T12:54:01;27.24;68.13
68842;SHT35;55849;48.482;2.332;2022-07-22T12:57:03;27.30;67.65
68842;SHT35;55849;48.482;2.332;2022-07-22T13:00:06;27.32;67.14
68842;SHT35;55849;48.482;2.332;2022-07-22T13:03:09;27.37;66.28
68842;SHT35;55849;48.482;2.332;2022-07-22T13:06:11;27.41;66.88
68842;SHT35;55849;48.482;2.332;2022-07-22T13:09:12;27.43;66.16
68842;SHT35;55849;48.482;2.332;2022-07-22T13:12:14;27.43;65.80
68842;SHT35;55849;48.482;2.332;2022-07-22T13:15:16;27.45;66.43
68842;SHT35;55849;48.482;2.332;2022-07-22T13:18:19;27.50;66.68
68842;SHT35;55849;48.482;2.332;2022-07-22T13:21:21;27.56;66.36
68842;SHT35;55849;48.482;2.332;2022-07-22T13:24:22;27.62;65.83
68842;SHT35;55849;48.482;2.332;2022-07-22T13:27:24;27.71;65.57
68842;SHT35;55849;48.482;2.332;2022-07-22T13:30:26;27.79;66.13
68842;SHT35;55849;48.482;2.332;2022-07-22T13:33:29;27.91;65.66
68842;SHT35;55849;48.482;2.332;2022-07-22T13:36:30;28.02;65.27
68842;SHT35;55849;48.482;2.332;2022-07-22T13:39:34;28.05;65.36
68842;SHT35;55849;48.482;2.332;2022-07-22T13:42:35;28.05;65.90
68842;SHT35;55849;48.482;2.332;2022-07-22T13:45:37;28.05;65.40
68842;SHT35;55849;48.482;2.332;2022-07-22T13:48:40;28.09;66.03
68842;SHT35;55849;48.482;2.332;2022-07-22T13:51:42;28.12;65.80
68842;SHT35;55849;48.482;2.332;2022-07-22T13:54:43;28.24;65.52
68842;SHT35;55849;48.482;2.332;2022-07-22T13:57:45;28.42;65.22
68842;SHT35;55849;48.482;2.332;2022-07-22T14:00:46;28.61;64.86
68842;SHT35;55849;48.482;2.332;2022-07-22T14:03:50;28.80;61.77
68842;SHT35;55849;48.482;2.332;2022-07-22T14:06:51;28.88;60.87
68842;SHT35;55849;48.482;2.332;2022-07-22T14:09:53;28.88;61.22
68842;SHT35;55849;48.482;2.332;2022-07-22T14:12:55;28.86;61.63
68842;SHT35;55849;48.482;2.332;2022-07-22T14:15:57;28.77;62.45
68842;SHT35;55849;48.482;2.332;2022-07-22T14:19:20;28.67;62.75
68842;SHT35;55849;48.482;2.332;2022-07-22T14:22:21;28.57;63.21
68842;SHT35;55849;48.482;2.332;2022-07-22T14:25:23;28.49;62.30
68842;SHT35;55849;48.482;2.332;2022-07-22T14:28:25;28.42;62.56
68842;SHT35;55849;48.482;2.332;2022-07-22T14:31:26;28.38;63.21
68842;SHT35;55849;48.482;2.332;2022-07-22T14:34:30;28.31;64.08
68842;SHT35;55849;48.482;2.332;2022-07-22T14:37:31;28.26;64.75
68842;SHT35;55849;48.482;2.332;2022-07-22T14:40:33;28.19;65.69
68842;SHT35;55849;48.482;2.332;2022-07-22T14:43:35;28.14;66.24
68842;SHT35;55849;48.482;2.332;2022-07-22T14:46:37;28.11;66.68
68842;SHT35;55849;48.482;2.332;2022-07-22T14:49:40;28.11;66.79
68842;SHT35;55849;48.482;2.332;2022-07-22T14:52:42;28.09;66.56
68842;SHT35;55849;48.482;2.332;2022-07-22T14:55:43;28.08;66.72
68842;SHT35;55849;48.482;2.332;2022-07-22T14:58:45;28.04;66.62
68842;SHT35;55849;48.482;2.332;2022-07-22T15:01:48;28.02;66.61
68842;SHT35;55849;48.482;2.332;2022-07-22T15:04:51;28.02;66.75
68842;SHT35;55849;48.482;2.332;2022-07-22T15:07:52;27.98;66.82
68842;SHT35;55849;48.482;2.332;2022-07-22T15:10:54;27.96;66.74
68842;SHT35;55849;48.482;2.332;2022-07-22T15:13:56;27.90;66.92
68842;SHT35;55849;48.482;2.332;2022-07-22T15:16:57;27.89;67.61
68842;SHT35;55849;48.482;2.332;2022-07-22T15:20:00;27.83;66.76
68842;SHT35;55849;48.482;2.332;2022-07-22T15:23:02;27.80;67.68
68842;SHT35;55849;48.482;2.332;2022-07-22T15:26:03;27.83;67.07
68842;SHT35;55849;48.482;2.332;2022-07-22T15:29:05;27.80;67.36
68842;SHT35;55849;48.482;2.332;2022-07-22T15:32:07;27.80;66.78
68842;SHT35;55849;48.482;2.332;2022-07-22T15:35:10;27.83;67.64
68842;SHT35;55849;48.482;2.332;2022-07-22T15:38:11;27.83;67.82
68842;SHT35;55849;48.482;2.332;2022-07-22T15:41:13;27.82;67.54
68842;SHT35;55849;48.482;2.332;2022-07-22T15:44:14;27.76;67.84
68842;SHT35;55849;48.482;2.332;2022-07-22T15:47:16;27.73;67.06
68842;SHT35;55849;48.482;2.332;2022-07-22T15:50:19;27.69;66.05
68842;SHT35;55849;48.482;2.332;2022-07-22T15:53:21;27.62;66.43
68842;SHT35;55849;48.482;2.332;2022-07-22T15:56:23;27.60;66.67
68842;SHT35;55849;48.482;2.332;2022-07-22T15:59:25;27.57;67.05
68842;SHT35;55849;48.482;2.332;2022-07-22T16:02:31;27.55;67.35
68842;SHT35;55849;48.482;2.332;2022-07-22T16:05:34;27.52;67.46
68842;SHT35;55849;48.482;2.332;2022-07-22T16:08:36;27.50;67.05
68842;SHT35;55849;48.482;2.332;2022-07-22T16:11:38;27.49;67.48
68842;SHT35;55849;48.482;2.332;2022-07-22T16:14:40;27.49;67.50
68842;SHT35;55849;48.482;2.332;2022-07-22T16:17:41;27.48;67.83
68842;SHT35;55849;48.482;2.332;2022-07-22T16:20:44;27.48;67.66
68842;SHT35;55849;48.482;2.332;2022-07-22T16:23:46;27.50;67.95
68842;SHT35;55849;48.482;2.332;2022-07-22T16:26:47;27.50;67.86
68842;SHT35;55849;48.482;2.332;2022-07-22T16:29:49;27.53;67.38
68842;SHT35;55849;48.482;2.332;2022-07-22T16:32:51;27.60;67.99
68842;SHT35;55849;48.482;2.332;2022-07-22T16:35:54;27.71;67.57
68842;SHT35;55849;48.482;2.332;2022-07-22T16:38:56;27.84;67.79
68842;SHT35;55849;48.482;2.332;2022-07-22T16:41:57;27.91;66.61
68842;SHT35;55849;48.482;2.332;2022-07-22T16:44:59;27.98;67.12
68842;SHT35;55849;48.482;2.332;2022-07-22T16:48:01;28.04;67.20
68842;SHT35;55849;48.482;2.332;2022-07-22T16:51:04;28.02;67.01
68842;SHT35;55849;48.482;2.332;2022-07-22T16:54:05;28.07;67.30
68842;SHT35;55849;48.482;2.332;2022-07-22T16:57:07;28.09;67.32
68842;SHT35;55849;48.482;2.332;2022-07-22T17:00:10;28.15;66.89
68842;SHT35;55849;48.482;2.332;2022-07-22T17:03:12;28.18;66.05
68842;SHT35;55849;48.482;2.332;2022-07-22T17:06:15;28.25;65.88
68842;SHT35;55849;48.482;2.332;2022-07-22T17:09:16;28.25;65.67
68842;SHT35;55849;48.482;2.332;2022-07-22T17:12:18;28.28;65.73
68842;SHT35;55849;48.482;2.332;2022-07-22T17:15:20;28.31;64.79
68842;SHT35;55849;48.482;2.332;2022-07-22T17:18:21;28.32;64.38
68842;SHT35;55849;48.482;2.332;2022-07-22T17:21:24;28.28;64.55
68842;SHT35;55849;48.482;2.332;2022-07-22T17:24:26;28.25;64.13
68842;SHT35;55849;48.482;2.332;2022-07-22T17:27:28;28.25;64.19
68842;SHT35;55849;48.482;2.332;2022-07-22T17:30:29;28.24;64.53
68842;SHT35;55849;48.482;2.332;2022-07-22T17:33:31;28.19;64.84
68842;SHT35;55849;48.482;2.332;2022-07-22T17:36:34;28.17;64.36
68842;SHT35;55849;48.482;2.332;2022-07-22T17:39:36;28.11;64.29
68842;SHT35;55849;48.482;2.332;2022-07-22T17:42:37;28.05;64.24
68842;SHT35;55849;48.482;2.332;2022-07-22T17:45:39;28.00;64.28
68842;SHT35;55849;48.482;2.332;2022-07-22T17:48:40;27.93;64.49
68842;SHT35;55849;48.482;2.332;2022-07-22T17:51:45;27.86;64.19
68842;SHT35;55849;48.482;2.332;2022-07-22T17:54:46;27.79;63.86
68842;SHT35;55849;48.482;2.332;2022-07-22T17:57:48;27.70;63.11
68842;SHT35;55849;48.482;2.332;2022-07-22T18:00:50;27.65;63.92
68842;SHT35;55849;48.482;2.332;2022-07-22T18:03:51;27.57;63.91
68842;SHT35;55849;48.482;2.332;2022-07-22T18:06:55;27.55;64.06
68842;SHT35;55849;48.482;2.332;2022-07-22T18:09:57;27.46;63.50
68842;SHT35;55849;48.482;2.332;2022-07-22T18:12:59;27.42;63.61
68842;SHT35;55849;48.482;2.332;2022-07-22T18:16:00;27.38;64.10
68842;SHT35;55849;48.482;2.332;2022-07-22T18:19:02;27.31;64.21
68842;SHT35;55849;48.482;2.332;2022-07-22T18:22:05;27.28;64.24
68842;SHT35;55849;48.482;2.332;2022-07-22T18:25:07;27.24;64.24
68842;SHT35;55849;48.482;2.332;2022-07-22T18:28:08;27.16;63.31
68842;SHT35;55849;48.482;2.332;2022-07-22T18:31:11;27.15;64.14
68842;SHT35;55849;48.482;2.332;2022-07-22T18:34:13;27.11;64.31
68842;SHT35;55849;48.482;2.332;2022-07-22T18:37:16;27.05;64.46
68842;SHT35;55849;48.482;2.332;2022-07-22T18:40:17;27.01;64.51
68842;SHT35;55849;48.482;2.332;2022-07-22T18:43:19;27.00;64.57
68842;SHT35;55849;48.482;2.332;2022-07-22T18:46:21;26.96;64.68
68842;SHT35;55849;48.482;2.332;2022-07-22T18:49:22;26.90;64.62
68842;SHT35;55849;48.482;2.332;2022-07-22T18:52:25;26.90;64.69
68842;SHT35;55849;48.482;2.332;2022-07-22T18:55:27;26.86;64.95
68842;SHT35;55849;48.482;2.332;2022-07-22T18:58:29;26.84;64.93
68842;SHT35;55849;48.482;2.332;2022-07-22T19:01:30;26.79;64.91
68842;SHT35;55849;48.482;2.332;2022-07-22T19:04:32;26.79;64.83
68842;SHT35;55849;48.482;2.332;2022-07-22T19:07:35;26.75;64.83
68842;SHT35;55849;48.482;2.332;2022-07-22T19:10:36;26.70;64.89